createdAt,value
2023-03-06T00:01:38.204Z,8.40
2023-03-06T00:04:08.198Z,8.30
2023-03-06T00:06:35.608Z,8.25
2023-03-06T00:09:02.976Z,8.31
2023-03-06T00:11:30.272Z,8.23
2023-03-06T00:13:57.691Z,8.17
2023-03-06T00:16:25.773Z,8.20
2023-03-06T00:18:53.075Z,8.17
2023-03-06T00:21:21.839Z,8.19
2023-03-06T00:23:49.174Z,8.02
2023-03-06T00:26:16.561Z,8.04
2023-03-06T00:28:43.890Z,8.02
2023-03-06T00:31:13.555Z,7.89
2023-03-06T00:33:40.891Z,7.75
2023-03-06T00:36:08.453Z,7.92
2023-03-06T00:38:37.277Z,7.91
2023-03-06T00:41:09.307Z,7.82
2023-03-06T00:43:37.875Z,7.64
2023-03-06T00:46:05.825Z,7.72
2023-03-06T00:48:34.122Z,7.84
2023-03-06T00:51:01.818Z,7.87
2023-03-06T00:53:29.084Z,7.86
2023-03-06T00:55:56.423Z,7.93
2023-03-06T00:58:23.765Z,7.91
2023-03-06T01:00:51.423Z,7.88
2023-03-06T01:03:18.787Z,7.74
2023-03-06T01:05:46.242Z,7.76
2023-03-06T01:08:13.579Z,7.89
2023-03-06T01:10:41.040Z,7.78
2023-03-06T01:13:09.767Z,7.84
2023-03-06T01:15:37.069Z,7.79
2023-03-06T01:18:04.575Z,7.86
2023-03-06T01:20:32.128Z,7.78
2023-03-06T01:22:59.478Z,7.95
2023-03-06T01:25:28.669Z,7.94
2023-03-06T01:27:58.715Z,8.19
2023-03-06T01:30:26.048Z,8.31
2023-03-06T01:32:53.353Z,8.17
2023-03-06T01:35:20.743Z,8.14
2023-03-06T01:37:48.147Z,8.09
2023-03-06T01:40:15.703Z,8.08
2023-03-06T01:42:43.082Z,8.18
2023-03-06T01:45:13.421Z,8.17
2023-03-06T01:47:40.912Z,8.15
2023-03-06T01:50:10.875Z,8.10
2023-03-06T01:52:47.950Z,8.12
2023-03-06T01:55:21.047Z,8.15
2023-03-06T01:57:55.159Z,8.16
2023-03-06T02:00:25.356Z,8.09
2023-03-06T02:02:55.742Z,7.99
2023-03-06T02:05:23.564Z,7.97
2023-03-06T02:07:51.913Z,8.02
2023-03-06T02:10:20.607Z,7.96
2023-03-06T02:12:50.314Z,8.07
2023-03-06T02:15:22.205Z,7.97
2023-03-06T02:17:51.257Z,8.11
2023-03-06T02:20:33.739Z,8.12
2023-03-06T02:23:16.745Z,8.14
2023-03-06T02:25:48.428Z,8.06
2023-03-06T02:28:18.782Z,8.07
2023-03-06T02:30:48.662Z,8.07
2023-03-06T02:33:23.139Z,7.98
2023-03-06T02:35:55.798Z,7.96
2023-03-06T02:38:28.993Z,7.91
2023-03-06T02:40:58.145Z,7.85
2023-03-06T02:43:34.552Z,7.85
2023-03-06T02:46:03.012Z,7.84
2023-03-06T02:48:30.303Z,7.91
2023-03-06T02:50:57.922Z,7.75
2023-03-06T02:53:26.409Z,7.87
2023-03-06T02:55:54.503Z,7.85
2023-03-06T02:58:21.872Z,7.92
2023-03-06T03:00:49.676Z,7.95
2023-03-06T03:03:17.966Z,8.01
2023-03-06T03:05:45.276Z,8.11
2023-03-06T03:08:20.140Z,8.12
2023-03-06T03:10:49.223Z,8.17
2023-03-06T03:13:16.654Z,8.08
2023-03-06T03:15:46.706Z,8.17
2023-03-06T03:18:14.087Z,8.10
2023-03-06T03:20:43.849Z,8.13
2023-03-06T03:23:11.225Z,8.17
2023-03-06T03:25:38.594Z,8.19
2023-03-06T03:28:06.155Z,8.13
2023-03-06T03:30:33.638Z,8.19
2023-03-06T03:33:01.384Z,8.08
2023-03-06T03:35:28.921Z,8.02
2023-03-06T03:37:57.109Z,7.94
2023-03-06T03:40:24.772Z,7.94
2023-03-06T03:42:52.380Z,7.90
2023-03-06T03:45:20.809Z,7.88
2023-03-06T03:47:48.312Z,7.88
2023-03-06T03:50:15.960Z,7.99
2023-03-06T03:52:43.812Z,7.95
2023-03-06T03:55:12.763Z,8.02
2023-03-06T03:57:43.121Z,8.03
2023-03-06T04:00:16.046Z,8.00
2023-03-06T04:02:57.475Z,7.92
2023-03-06T04:05:35.956Z,7.98
2023-03-06T04:08:05.740Z,8.10
2023-03-06T04:10:35.060Z,8.18
2023-03-06T04:13:03.445Z,8.24
2023-03-06T04:15:31.971Z,8.24
2023-03-06T04:18:00.967Z,8.35
2023-03-06T04:20:30.589Z,8.31
2023-03-06T04:23:00.247Z,8.28
2023-03-06T04:25:27.894Z,8.25
2023-03-06T04:27:55.361Z,8.23
2023-03-06T04:30:25.585Z,8.30
2023-03-06T04:32:53.105Z,8.27
2023-03-06T04:35:20.678Z,8.28
2023-03-06T04:37:56.379Z,8.25
2023-03-06T04:40:28.716Z,8.16
2023-03-06T04:42:58.363Z,8.22
2023-03-06T04:45:27.210Z,8.30
2023-03-06T04:47:55.144Z,8.35
2023-03-06T04:50:24.035Z,8.19
2023-03-06T04:52:51.836Z,8.28
2023-03-06T04:55:19.891Z,8.20
2023-03-06T04:57:47.880Z,8.31
2023-03-06T05:00:22.200Z,8.29
2023-03-06T05:02:51.120Z,8.40
2023-03-06T05:05:19.375Z,8.30
2023-03-06T05:07:47.163Z,8.20
2023-03-06T05:10:16.687Z,8.29
2023-03-06T05:12:44.829Z,8.08
2023-03-06T05:15:13.196Z,8.08
2023-03-06T05:17:40.652Z,8.03
2023-03-06T05:20:10.300Z,7.93
2023-03-06T05:22:38.033Z,8.08
2023-03-06T05:25:06.473Z,7.98
2023-03-06T05:27:34.335Z,8.05
2023-03-06T05:30:01.789Z,7.87
2023-03-06T05:32:29.414Z,7.95
2023-03-06T05:34:56.745Z,7.83
2023-03-06T05:37:24.384Z,7.85
2023-03-06T05:39:51.918Z,7.89
2023-03-06T05:42:21.936Z,7.95
2023-03-06T05:44:49.361Z,7.94
2023-03-06T05:47:16.783Z,7.89
2023-03-06T05:49:44.108Z,7.96
2023-03-06T05:52:13.114Z,7.90
2023-03-06T05:54:40.396Z,7.83
2023-03-06T05:57:07.852Z,7.77
2023-03-06T05:59:35.970Z,7.76
2023-03-06T06:02:05.395Z,7.79
2023-03-06T06:04:32.881Z,7.88
2023-03-06T06:07:01.245Z,7.89
2023-03-06T06:09:29.277Z,7.81
2023-03-06T06:12:02.425Z,7.82
2023-03-06T06:14:30.742Z,7.73
2023-03-06T06:16:58.041Z,7.78
2023-03-06T06:19:28.038Z,7.92
2023-03-06T06:21:55.682Z,7.98
2023-03-06T06:24:25.603Z,7.96
2023-03-06T06:26:55.626Z,7.88
2023-03-06T06:29:23.484Z,8.03
2023-03-06T06:31:52.135Z,8.28
2023-03-06T06:34:20.720Z,8.35
2023-03-06T06:36:48.331Z,8.20
2023-03-06T06:39:20.279Z,8.12
2023-03-06T06:42:05.620Z,8.17
2023-03-06T06:44:38.937Z,8.23
2023-03-06T06:47:22.208Z,8.26
2023-03-06T06:49:52.775Z,8.29
2023-03-06T06:52:21.000Z,8.29
2023-03-06T06:54:48.331Z,8.23
2023-03-06T06:57:16.332Z,8.24
2023-03-06T06:59:43.805Z,8.32
2023-03-06T07:02:12.945Z,8.37
2023-03-06T07:04:52.343Z,8.44
2023-03-06T07:07:25.541Z,8.72
2023-03-06T07:09:54.680Z,8.79
2023-03-06T07:12:22.122Z,8.76
2023-03-06T07:14:50.673Z,8.82
2023-03-06T07:17:18.420Z,8.83
2023-03-06T07:19:45.859Z,9.05
2023-03-06T07:22:13.313Z,9.41
2023-03-06T07:24:40.680Z,9.04
2023-03-06T07:27:08.080Z,9.04
2023-03-06T07:29:35.598Z,8.99
2023-03-06T07:32:03.039Z,8.98
2023-03-06T07:34:30.404Z,9.10
2023-03-06T07:36:57.767Z,9.16
2023-03-06T07:39:25.176Z,9.20
2023-03-06T07:41:53.476Z,9.31
2023-03-06T07:44:20.867Z,9.32
2023-03-06T07:46:48.195Z,9.29
2023-03-06T07:49:15.994Z,9.38
2023-03-06T07:51:43.527Z,9.30
2023-03-06T07:54:10.939Z,9.30
2023-03-06T07:56:38.313Z,9.06
2023-03-06T07:59:05.596Z,9.24
2023-03-06T08:01:33.177Z,8.97
2023-03-06T08:04:02.028Z,9.04
2023-03-06T08:06:29.504Z,9.15
2023-03-06T08:08:57.143Z,9.28
2023-03-06T08:11:27.089Z,9.20
2023-03-06T08:13:55.725Z,9.25
2023-03-06T08:16:25.865Z,9.34
2023-03-06T08:18:53.764Z,9.38
2023-03-06T08:21:26.710Z,9.32
2023-03-06T08:23:56.526Z,9.29
2023-03-06T08:26:27.226Z,9.32
2023-03-06T08:28:57.001Z,9.15
2023-03-06T08:31:35.909Z,9.22
2023-03-06T08:34:10.932Z,9.35
2023-03-06T08:36:38.831Z,9.51
2023-03-06T08:39:06.645Z,9.53
2023-03-06T08:41:34.337Z,9.52
2023-03-06T08:44:01.627Z,9.75
2023-03-06T08:46:32.718Z,9.98
2023-03-06T08:49:00.385Z,10.11
2023-03-06T08:51:29.039Z,10.23
2023-03-06T08:53:57.919Z,10.49
2023-03-06T08:56:36.088Z,10.60
2023-03-06T08:59:04.716Z,10.63
2023-03-06T09:01:35.148Z,10.77
2023-03-06T09:04:06.322Z,10.77
2023-03-06T09:06:38.640Z,11.13
2023-03-06T09:09:06.469Z,11.57
2023-03-06T09:11:34.201Z,11.19
2023-03-06T09:14:01.598Z,11.29
2023-03-06T09:16:29.234Z,11.59
2023-03-06T09:18:57.836Z,11.60
2023-03-06T09:21:26.268Z,11.66
2023-03-06T09:23:53.893Z,12.01
2023-03-06T09:26:21.413Z,12.45
2023-03-06T09:28:48.769Z,12.91
2023-03-06T09:31:18.673Z,12.52
2023-03-06T09:33:46.794Z,12.62
2023-03-06T09:36:19.211Z,12.69
2023-03-06T09:38:48.367Z,13.35
2023-03-06T09:41:27.956Z,13.02
2023-03-06T09:44:04.866Z,12.77
2023-03-06T09:46:59.640Z,13.23
2023-03-06T09:49:47.456Z,13.47
2023-03-06T09:52:23.464Z,13.98
2023-03-06T09:55:02.726Z,14.89
2023-03-06T09:57:41.789Z,15.53
2023-03-06T10:00:16.848Z,15.55
2023-03-06T10:02:45.938Z,15.38
2023-03-06T10:05:19.828Z,15.06
2023-03-06T10:08:00.580Z,15.65
2023-03-06T10:10:47.037Z,15.63
2023-03-06T10:13:38.209Z,15.79
2023-03-06T10:16:30.426Z,16.30
2023-03-06T10:19:04.515Z,16.09
2023-03-06T10:21:50.396Z,15.31
2023-03-06T10:24:35.142Z,14.87
2023-03-06T10:27:31.593Z,14.75
2023-03-06T10:30:11.326Z,14.90
2023-03-06T10:32:51.199Z,15.26
2023-03-06T10:35:22.183Z,15.76
2023-03-06T10:37:51.956Z,14.92
2023-03-06T10:40:21.903Z,14.64
2023-03-06T10:42:56.018Z,14.52
2023-03-06T10:45:33.076Z,14.23
2023-03-06T10:48:14.629Z,14.19
2023-03-06T10:50:41.980Z,14.24
2023-03-06T10:53:23.411Z,14.09
2023-03-06T10:56:01.384Z,14.41
2023-03-06T10:58:32.932Z,14.24
2023-03-06T11:01:09.297Z,14.55
2023-03-06T11:03:37.479Z,14.39
2023-03-06T11:06:13.096Z,15.04
2023-03-06T11:08:43.308Z,15.16
2023-03-06T11:11:36.401Z,15.22
2023-03-06T11:14:15.270Z,15.03
2023-03-06T11:16:53.011Z,15.06
2023-03-06T11:19:28.009Z,14.90
2023-03-06T11:22:06.030Z,15.01
2023-03-06T11:24:40.606Z,15.41
2023-03-06T11:27:19.237Z,15.28
2023-03-06T11:29:50.465Z,14.98
2023-03-06T11:32:39.372Z,15.01
2023-03-06T11:35:12.718Z,15.79
2023-03-06T11:38:07.765Z,15.92
2023-03-06T11:40:49.818Z,16.04
2023-03-06T11:43:44.986Z,15.99
2023-03-06T11:46:30.736Z,15.57
2023-03-06T11:49:12.976Z,15.71
2023-03-06T11:51:46.410Z,15.77
2023-03-06T11:54:14.229Z,16.42
2023-03-06T11:56:55.417Z,16.41
2023-03-06T11:59:37.386Z,16.34
2023-03-06T12:02:21.923Z,16.78
2023-03-06T12:05:01.380Z,16.52
2023-03-06T12:07:58.012Z,16.46
2023-03-06T12:10:51.871Z,16.03
2023-03-06T12:16:11.083Z,15.71
2023-03-06T12:19:15.981Z,15.42
2023-03-06T12:21:47.261Z,15.21
2023-03-06T12:24:32.208Z,15.17
2023-03-06T12:27:08.208Z,15.63
2023-03-06T12:29:47.727Z,15.92
2023-03-06T12:32:38.397Z,16.59
2023-03-06T12:35:28.060Z,16.40
2023-03-06T12:38:04.377Z,16.60
2023-03-06T12:40:59.353Z,16.36
2023-03-06T12:43:39.926Z,16.02
2023-03-06T12:46:25.333Z,16.04
2023-03-06T12:49:08.890Z,15.57
2023-03-06T12:51:37.619Z,16.13
2023-03-06T12:54:11.326Z,16.22
2023-03-06T12:56:39.821Z,16.31
2023-03-06T12:59:47.914Z,16.37
2023-03-06T13:02:24.480Z,15.79
2023-03-06T13:05:14.614Z,15.82
2023-03-06T13:08:12.704Z,16.53
2023-03-06T13:10:42.337Z,16.82
2023-03-06T13:13:34.217Z,16.72
2023-03-06T13:16:15.944Z,16.98
2023-03-06T13:18:43.276Z,17.27
2023-03-06T13:22:00.268Z,17.04
2023-03-06T13:24:33.270Z,17.15
2023-03-06T13:27:12.079Z,17.36
2023-03-06T13:29:39.368Z,17.15
2023-03-06T13:32:15.932Z,16.60
2023-03-06T13:34:52.498Z,16.66
2023-03-06T13:37:20.166Z,16.81
2023-03-06T13:39:59.585Z,17.06
2023-03-06T13:42:37.425Z,16.98
2023-03-06T13:45:23.931Z,16.80
2023-03-06T13:48:22.616Z,16.90
2023-03-06T13:50:46.242Z,16.46
2023-03-06T13:53:25.348Z,16.69
2023-03-06T13:56:10.008Z,16.54
2023-03-06T13:58:53.434Z,16.61
2023-03-06T14:01:44.942Z,16.50
2023-03-06T14:04:38.051Z,16.56
2023-03-06T14:07:11.184Z,16.45
2023-03-06T14:09:43.580Z,16.22
2023-03-06T14:12:27.874Z,16.65
2023-03-06T14:14:58.748Z,16.53
2023-03-06T14:17:34.831Z,16.36
2023-03-06T14:20:18.224Z,16.12
2023-03-06T14:22:45.707Z,16.19
2023-03-06T14:25:13.032Z,16.73
2023-03-06T14:27:58.173Z,16.79
2023-03-06T14:30:28.068Z,16.66
2023-03-06T14:32:58.419Z,16.11
2023-03-06T14:35:32.128Z,16.21
2023-03-06T14:38:02.810Z,16.38
2023-03-06T14:40:34.700Z,16.41
2023-03-06T14:43:12.360Z,16.11
2023-03-06T14:46:14.959Z,16.00
2023-03-06T14:48:45.821Z,15.65
2023-03-06T14:51:21.012Z,15.66
2023-03-06T14:53:50.693Z,15.64
2023-03-06T14:56:21.248Z,15.35
2023-03-06T14:58:56.865Z,15.38
2023-03-06T15:01:40.894Z,15.38
2023-03-06T15:04:45.744Z,14.84
2023-03-06T15:07:17.709Z,15.02
2023-03-06T15:09:49.473Z,14.81
2023-03-06T15:12:22.785Z,15.02
2023-03-06T15:15:09.571Z,14.64
2023-03-06T15:17:41.709Z,14.42
2023-03-06T15:21:00.289Z,14.58
2023-03-06T15:23:40.177Z,14.79
2023-03-06T15:26:31.929Z,14.70
2023-03-06T15:29:11.293Z,14.73
2023-03-06T15:31:44.045Z,14.65
2023-03-06T15:34:11.478Z,14.71
2023-03-06T15:36:42.786Z,14.61
2023-03-06T15:39:28.160Z,14.43
2023-03-06T15:42:00.774Z,14.43
2023-03-06T15:44:31.693Z,14.47
2023-03-06T15:47:08.548Z,14.33
2023-03-06T15:49:38.138Z,14.35
2023-03-06T15:52:09.433Z,14.52
2023-03-06T15:54:37.127Z,14.52
2023-03-06T15:57:06.087Z,14.59
2023-03-06T15:59:41.453Z,14.77
2023-03-06T16:02:17.985Z,14.74
2023-03-06T16:04:46.110Z,14.77
2023-03-06T16:07:14.254Z,14.63
2023-03-06T16:09:42.880Z,14.64
2023-03-06T16:12:30.743Z,14.53
2023-03-06T16:15:01.202Z,14.62
2023-03-06T16:17:28.483Z,14.44
2023-03-06T16:19:55.869Z,14.38
2023-03-06T16:22:23.242Z,14.64
2023-03-06T16:24:50.925Z,14.63
2023-03-06T16:27:19.811Z,14.46
2023-03-06T16:29:47.232Z,14.31
2023-03-06T16:32:14.499Z,14.14
2023-03-06T16:34:41.942Z,14.08
2023-03-06T16:37:12.749Z,13.91
2023-03-06T16:39:40.172Z,13.81
2023-03-06T16:42:07.487Z,13.84
2023-03-06T16:44:34.830Z,13.77
2023-03-06T16:47:02.111Z,13.79
2023-03-06T16:49:29.544Z,13.60
2023-03-06T16:51:56.908Z,13.51
2023-03-06T16:54:26.161Z,13.48
2023-03-06T16:56:53.491Z,13.46
2023-03-06T16:59:21.042Z,13.48
2023-03-06T17:01:48.378Z,13.23
2023-03-06T17:04:15.769Z,13.16
2023-03-06T17:06:43.346Z,13.05
2023-03-06T17:09:11.074Z,12.98
2023-03-06T17:11:38.758Z,12.84
2023-03-06T17:14:06.978Z,12.78
2023-03-06T17:16:36.521Z,12.70
2023-03-06T17:19:03.933Z,12.52
2023-03-06T17:21:31.644Z,12.45
2023-03-06T17:24:01.649Z,12.39
2023-03-06T17:26:29.292Z,12.37
2023-03-06T17:28:56.778Z,12.28
2023-03-06T17:31:26.798Z,12.23
2023-03-06T17:33:59.114Z,12.17
2023-03-06T17:36:27.835Z,12.12
2023-03-06T17:38:56.927Z,12.10
2023-03-06T17:41:25.040Z,12.14
2023-03-06T17:43:55.270Z,12.05
2023-03-06T17:46:22.694Z,11.99
2023-03-06T17:48:50.280Z,11.99
2023-03-06T17:51:17.634Z,11.92
2023-03-06T17:53:45.001Z,11.90
2023-03-06T17:56:14.331Z,11.89
2023-03-06T17:58:41.733Z,11.88
2023-03-06T18:01:29.953Z,11.88
2023-03-06T18:03:57.669Z,11.93
2023-03-06T18:06:27.566Z,12.00
2023-03-06T18:08:54.936Z,11.97
2023-03-06T18:11:22.802Z,11.95
2023-03-06T18:13:50.610Z,11.87
2023-03-06T18:16:20.992Z,11.77
2023-03-06T18:18:51.693Z,11.76
2023-03-06T18:21:19.929Z,11.72
2023-03-06T18:23:47.421Z,11.70
2023-03-06T18:26:18.597Z,11.65
2023-03-06T18:28:48.063Z,11.64
2023-03-06T18:31:24.606Z,11.65
2023-03-06T18:33:53.360Z,11.66
2023-03-06T18:36:22.873Z,11.65
2023-03-06T18:38:50.510Z,11.63
2023-03-06T18:41:19.229Z,11.67
2023-03-06T18:43:55.127Z,11.65
2023-03-06T18:46:23.736Z,11.64
2023-03-06T18:48:51.276Z,11.59
2023-03-06T18:51:20.128Z,11.55
2023-03-06T18:53:47.766Z,11.49
2023-03-06T18:56:22.340Z,11.49
2023-03-06T18:58:50.466Z,11.44
2023-03-06T19:01:18.475Z,11.48
2023-03-06T19:03:49.179Z,11.52
2023-03-06T19:06:17.330Z,11.56
2023-03-06T19:08:45.192Z,11.59
2023-03-06T19:11:15.153Z,11.59
2023-03-06T19:13:43.033Z,11.61
2023-03-06T19:16:17.750Z,11.60
2023-03-06T19:18:45.072Z,11.57
2023-03-06T19:21:20.972Z,11.55
2023-03-06T19:23:49.101Z,11.50
2023-03-06T19:26:18.719Z,11.48
2023-03-06T19:28:47.006Z,11.50
2023-03-06T19:31:20.449Z,11.47
2023-03-06T19:33:49.229Z,11.43
2023-03-06T19:36:19.291Z,11.37
2023-03-06T19:38:52.446Z,11.33
2023-03-06T19:41:19.714Z,11.35
2023-03-06T19:43:53.846Z,11.33
2023-03-06T19:46:22.112Z,11.30
2023-03-06T19:48:55.062Z,11.29
2023-03-06T19:51:22.526Z,11.28
2023-03-06T19:53:49.906Z,11.24
2023-03-06T19:56:29.080Z,11.32
2023-03-06T19:58:56.970Z,11.32
2023-03-06T20:01:26.612Z,11.35
2023-03-06T20:03:59.461Z,11.30
2023-03-06T20:06:29.253Z,11.24
2023-03-06T20:08:57.257Z,11.23
2023-03-06T20:11:29.841Z,11.19
2023-03-06T20:13:59.684Z,11.13
2023-03-06T20:16:28.196Z,11.13
2023-03-06T20:18:58.758Z,11.05
2023-03-06T20:21:31.348Z,11.08
2023-03-06T20:23:59.335Z,11.04
2023-03-06T20:26:28.826Z,11.01
2023-03-06T20:28:57.132Z,10.93
2023-03-06T20:31:26.779Z,10.91
2023-03-06T20:33:57.047Z,10.85
2023-03-06T20:36:28.889Z,10.79
2023-03-06T20:38:59.022Z,10.71
2023-03-06T20:41:28.743Z,10.53
2023-03-06T20:43:58.227Z,10.46
2023-03-06T20:46:26.227Z,10.45
2023-03-06T20:48:54.369Z,10.45
2023-03-06T20:51:28.588Z,10.42
2023-03-06T20:53:57.538Z,10.43
2023-03-06T20:56:27.884Z,10.49
2023-03-06T20:58:55.647Z,10.50
2023-03-06T21:01:31.634Z,10.45
2023-03-06T21:04:00.144Z,10.55
2023-03-06T21:06:30.864Z,10.60
2023-03-06T21:08:59.595Z,10.61
2023-03-06T21:11:27.962Z,10.53
2023-03-06T21:13:56.001Z,10.58
2023-03-06T21:16:25.638Z,10.63
2023-03-06T21:18:58.029Z,10.66
2023-03-06T21:21:29.801Z,10.40
2023-03-06T21:23:57.682Z,10.34
2023-03-06T21:26:27.346Z,10.29
2023-03-06T21:28:57.167Z,10.23
2023-03-06T21:31:25.228Z,10.21
2023-03-06T21:33:52.600Z,10.15
2023-03-06T21:36:21.788Z,10.14
2023-03-06T21:38:50.185Z,10.07
2023-03-06T21:41:28.615Z,9.98
2023-03-06T21:43:57.309Z,9.82
2023-03-06T21:46:25.579Z,9.70
2023-03-06T21:48:53.506Z,9.70
2023-03-06T21:51:23.460Z,9.52
2023-03-06T21:53:52.717Z,9.43
2023-03-06T21:56:23.849Z,9.37
2023-03-06T21:58:51.552Z,9.43
2023-03-06T22:01:22.800Z,9.40
2023-03-06T22:03:50.717Z,9.46
2023-03-06T22:06:22.815Z,9.53
2023-03-06T22:08:50.240Z,9.50
2023-03-06T22:11:19.691Z,9.47
2023-03-06T22:13:50.598Z,9.33
2023-03-06T22:16:18.359Z,9.33
2023-03-06T22:18:47.389Z,9.31
2023-03-06T22:21:16.592Z,9.30
2023-03-06T22:23:44.323Z,9.33
2023-03-06T22:26:14.263Z,9.34
2023-03-06T22:28:42.090Z,9.27
2023-03-06T22:31:13.672Z,9.16
2023-03-06T22:33:44.302Z,9.02
2023-03-06T22:36:14.412Z,8.95
2023-03-06T22:38:43.764Z,8.94
2023-03-06T22:41:12.674Z,8.72
2023-03-06T22:43:40.282Z,8.70
2023-03-06T22:46:10.731Z,8.54
2023-03-06T22:48:38.119Z,8.36
2023-03-06T22:51:17.171Z,8.38
2023-03-06T22:53:45.081Z,8.61
2023-03-06T22:56:15.332Z,8.77
2023-03-06T22:58:44.812Z,8.72
2023-03-06T23:01:18.442Z,8.75
2023-03-06T23:03:54.236Z,8.57
2023-03-06T23:06:25.030Z,8.68
2023-03-06T23:09:00.900Z,8.71
2023-03-06T23:11:29.201Z,8.62
2023-03-06T23:14:17.157Z,8.67
2023-03-06T23:17:03.530Z,8.68
2023-03-06T23:19:53.125Z,8.72
2023-03-06T23:22:39.103Z,8.75
2023-03-06T23:25:24.888Z,8.79
2023-03-06T23:27:52.283Z,8.79
2023-03-06T23:30:19.726Z,8.82
2023-03-06T23:32:47.007Z,8.89
2023-03-06T23:35:14.561Z,8.92
2023-03-06T23:37:42.134Z,8.94
2023-03-06T23:40:10.246Z,8.98
2023-03-06T23:42:38.269Z,8.98
2023-03-06T23:45:07.302Z,8.97
2023-03-06T23:47:34.957Z,9.05
2023-03-06T23:50:02.429Z,9.14
2023-03-06T23:52:29.755Z,8.95
2023-03-06T23:54:57.149Z,8.78
2023-03-06T23:57:26.888Z,8.76
2023-03-06T23:59:54.221Z,8.69
